Time;durP1;ratioP1;P1;durP2;ratioP2;P2;SDS_P1;SDS_P2;PMS_P1;PMS_P2;Temp;Humidity;BMP_temperature;BMP_pressure;BME280_temperature;BME280_humidity;BME280_pressure;Samples;Min_cycle;Max_cycle;Signal;HPM_P1;HPM_P2
2022/03/22 00:01:48;;;;;;;11.07;5.83;;;;;;;6.99;31.48;98311.31;6268996;22;20169;-89
2022/03/22 00:04:16;;;;;;;8.33;5.87;;;;;;;7.29;31.44;98355.59;6271468;22;20161;-84
2022/03/22 00:06:44;;;;;;;10.37;6.17;;;;;;;6.79;32.15;98278.09;6243479;22;20192;-84
2022/03/22 00:09:11;;;;;;;8.13;6.00;;;;;;;7.30;32.56;98359.91;6271125;22;20663;-80
2022/03/22 00:11:38;;;;;;;10.10;5.90;;;;;;;7.19;32.48;98361.75;6243602;22;20168;-80
2022/03/22 00:14:08;;;;;;;11.77;6.43;;;;;;;6.99;32.12;98308.75;6244505;22;20180;-83
2022/03/22 00:16:37;;;;;;;7.10;5.50;;;;;;;6.95;32.12;98312.22;6272079;22;20161;-83
2022/03/22 00:19:24;;;;;;;10.77;5.67;;;;;;;7.27;32.34;98366.84;6272338;22;20183;-81
2022/03/22 00:21:53;;;;;;;9.37;5.77;;;;;;;6.83;31.55;98284.06;6273736;22;20202;-82
2022/03/22 00:24:20;;;;;;;9.77;5.93;;;;;;;7.01;31.66;98315.59;6246074;22;20165;-85
2022/03/22 00:26:48;;;;;;;7.97;5.43;;;;;;;7.38;32.07;98363.25;6247926;22;20256;-82
2022/03/22 00:29:15;;;;;;;9.47;5.20;;;;;;;7.26;31.44;98337.63;6247026;22;20230;-79
2022/03/22 00:31:43;;;;;;;9.37;5.73;;;;;;;7.06;31.74;98313.84;6273455;22;20165;-85
2022/03/22 00:34:13;;;;;;;11.60;5.80;;;;;;;7.17;31.25;98334.31;6273014;22;20170;-83
2022/03/22 00:36:41;;;;;;;7.60;5.27;;;;;;;7.06;31.83;98316.41;6273436;22;20161;-89
2022/03/22 00:39:08;;;;;;;11.13;5.70;;;;;;;7.09;31.81;98326.66;6245797;22;20206;-86
2022/03/22 00:41:35;;;;;;;10.27;6.10;;;;;;;7.09;31.42;98328.41;6249676;22;20202;-87
2022/03/22 00:44:03;;;;;;;11.13;5.70;;;;;;;6.91;31.73;98297.69;6277136;22;20186;-83
2022/03/22 00:46:30;;;;;;;7.90;5.50;;;;;;;7.16;31.87;98317.16;6277460;22;20169;-88
2022/03/22 00:49:01;;;;;;;8.13;5.43;;;;;;;7.03;30.80;98288.09;6225678;22;20191;-84
2022/03/22 00:51:29;;;;;;;9.10;5.57;;;;;;;7.24;31.52;98311.03;6230468;22;20160;-79
2022/03/22 00:53:59;;;;;;;7.50;5.53;;;;;;;7.02;31.26;98286.41;6255872;22;20168;-80
2022/03/22 00:56:27;;;;;;;9.27;5.57;;;;;;;7.13;31.66;98286.28;6275956;22;20161;-87
2022/03/22 01:00:01;;;;;;;9.53;5.70;;;;;;;7.06;31.55;98277.78;6250194;22;20495;-82
2022/03/22 01:01:41;;;;;;;8.20;5.77;;;;;;;7.17;31.47;98298.25;6273650;22;20157;-83
2022/03/22 01:04:09;;;;;;;9.93;5.83;;;;;;;6.94;30.88;98233.28;6273966;22;20160;-85
2022/03/22 01:06:38;;;;;;;10.53;5.80;;;;;;;7.11;31.90;98259.69;6252402;22;20316;-85
2022/03/22 01:09:06;;;;;;;8.13;5.47;;;;;;;7.09;30.61;98264.03;6275532;22;20180;-85
2022/03/22 01:11:36;;;;;;;8.00;5.13;;;;;;;7.00;30.87;98236.66;6248081;22;20160;-84
2022/03/22 01:14:04;;;;;;;10.57;5.53;;;;;;;7.10;31.95;98255.41;6249654;22;20527;-83
2022/03/22 01:16:32;;;;;;;8.20;6.23;;;;;;;7.11;30.37;98257.94;6250956;22;20184;-88
2022/03/22 01:18:59;;;;;;;10.30;6.07;;;;;;;6.95;31.40;98242.72;6278908;22;20224;-79
2022/03/22 01:21:28;;;;;;;11.67;6.10;;;;;;;6.88;31.35;98241.09;6248256;22;20909;-83
2022/03/22 01:23:56;;;;;;;9.83;6.17;;;;;;;7.00;31.87;98243.50;6246760;22;20164;-79
2022/03/22 01:26:23;;;;;;;12.00;5.57;;;;;;;6.89;31.27;98217.91;6277007;22;20164;-81
2022/03/22 01:28:50;;;;;;;10.67;6.40;;;;;;;7.15;31.30;98269.91;6249622;22;20165;-79
2022/03/22 01:31:17;;;;;;;10.67;6.37;;;;;;;6.83;31.91;98222.25;6277938;22;20161;-79
2022/03/22 01:33:44;;;;;;;14.67;6.37;;;;;;;7.11;31.21;98281.13;6278261;22;20189;-84
2022/03/22 01:36:12;;;;;;;10.53;6.53;;;;;;;7.01;31.09;98251.22;6272970;22;20168;-83
2022/03/22 01:38:40;;;;;;;7.80;5.73;;;;;;;7.16;32.03;98278.50;6274899;22;20167;-84
2022/03/22 01:41:07;;;;;;;9.83;6.13;;;;;;;6.92;32.07;98253.06;6273043;22;20172;-81
2022/03/22 01:43:35;;;;;;;9.17;6.47;;;;;;;6.85;31.93;98235.97;6275356;22;20495;-86
2022/03/22 01:46:02;;;;;;;10.50;7.23;;;;;;;6.90;31.41;98242.78;6247879;22;20164;-80
2022/03/22 01:48:29;;;;;;;9.20;6.20;;;;;;;6.97;32.34;98262.44;6246425;22;20173;-84
2022/03/22 01:50:56;;;;;;;9.43;6.67;;;;;;;6.71;32.12;98220.69;6245529;22;20202;-88
2022/03/22 01:53:23;;;;;;;9.43;6.37;;;;;;;6.90;32.37;98254.81;6221300;22;20617;-81
2022/03/22 01:55:51;;;;;;;10.43;7.03;;;;;;;6.84;32.69;98235.09;6220403;22;20190;-85
2022/03/22 01:58:18;;;;;;;10.80;6.97;;;;;;;6.94;32.48;98247.03;6247399;22;20173;-82
2022/03/22 02:00:45;;;;;;;11.90;7.03;;;;;;;6.94;32.90;98241.03;6220345;22;20181;-81
2022/03/22 02:06:01;;;;;;;13.37;7.60;;;;;;;7.03;32.38;98251.19;6272745;22;20168;-83
2022/03/22 02:08:32;;;;;;;12.73;7.10;;;;;;;6.94;32.94;98239.31;6220994;22;20191;-86
2022/03/22 02:11:00;;;;;;;11.87;7.50;;;;;;;7.05;33.95;98265.75;6274332;22;20202;-80
2022/03/22 02:13:31;;;;;;;12.20;6.93;;;;;;;7.04;33.75;98269.22;6224424;22;20259;-88
2022/03/22 02:16:03;;;;;;;11.30;7.60;;;;;;;7.06;33.64;98271.78;6277896;22;20200;-84
2022/03/22 02:18:31;;;;;;;13.50;7.90;;;;;;;6.75;33.54;98216.34;6250318;22;20198;-85
2022/03/22 02:21:00;;;;;;;15.77;9.10;;;;;;;6.97;33.69;98261.56;6251548;22;20207;-83
2022/03/22 02:23:55;;;;;;;12.07;7.43;;;;;;;7.06;33.97;98251.16;6251049;22;20176;-87
2022/03/22 02:26:25;;;;;;;14.27;8.03;;;;;;;6.74;34.20;98210.34;6243121;22;20500;-84
2022/03/22 02:28:53;;;;;;;17.47;8.67;;;;;;;7.04;34.28;98258.06;6265566;22;20173;-86
2022/03/22 02:31:30;;;;;;;16.10;9.20;;;;;;;6.77;33.71;98215.47;6274822;22;20200;-92
2022/03/22 02:33:58;;;;;;;16.37;8.73;;;;;;;6.97;34.29;98246.13;6292165;22;20278;-81
2022/03/22 02:36:26;;;;;;;16.53;9.00;;;;;;;6.89;34.81;98235.06;6259445;22;20224;-79
2022/03/22 02:38:53;;;;;;;14.20;8.40;;;;;;;6.90;34.19;98241.94;6286265;22;20164;-80
2022/03/22 02:41:27;;;;;;;13.10;8.23;;;;;;;6.94;34.37;98261.63;6275240;22;20167;-89
2022/03/22 02:43:57;;;;;;;13.43;8.27;;;;;;;6.69;34.92;98225.00;6274297;22;20221;-86
2022/03/22 02:46:24;;;;;;;12.53;7.63;;;;;;;6.77;34.99;98237.78;6273239;22;20164;-86
2022/03/22 02:48:52;;;;;;;16.50;9.37;;;;;;;6.90;34.50;98258.25;6249180;22;20166;-88
2022/03/22 02:51:19;;;;;;;14.97;8.30;;;;;;;6.78;34.68;98234.34;6246685;22;20188;-89
2022/03/22 02:53:47;;;;;;;13.03;8.33;;;;;;;6.72;34.89;98206.94;6247708;22;20172;-88
2022/03/22 02:56:14;;;;;;;14.97;8.73;;;;;;;6.55;34.43;98201.16;6221675;22;20203;-80
2022/03/22 02:58:41;;;;;;;12.30;8.27;;;;;;;6.72;34.90;98214.66;6272766;22;20168;-84
2022/03/22 03:01:11;;;;;;;15.23;8.60;;;;;;;6.62;35.34;98207.06;6247033;22;20171;-84
2022/03/22 03:03:38;;;;;;;12.70;8.63;;;;;;;6.77;35.50;98227.50;6274239;22;20254;-89
2022/03/22 03:06:06;;;;;;;16.67;8.83;;;;;;;6.70;34.94;98218.16;6274691;22;20194;-85
2022/03/22 03:08:33;;;;;;;15.73;8.93;;;;;;;6.59;35.25;98213.13;6224499;22;20176;-88
2022/03/22 03:11:01;;;;;;;13.57;8.20;;;;;;;6.59;35.89;98213.94;6274401;22;20207;-80
2022/03/22 03:14:38;;;;;;;13.80;8.53;;;;;;;6.29;35.77;98164.56;6269715;22;20172;-83
2022/03/22 03:16:16;;;;;;;15.83;8.90;;;;;;;6.99;34.74;98245.22;6280505;22;20224;-83
2022/03/22 03:18:43;;;;;;;13.17;8.77;;;;;;;6.58;35.82;98199.41;6279009;22;20250;-83
2022/03/22 03:21:11;;;;;;;14.87;9.17;;;;;;;6.74;35.31;98218.06;6276383;22;20211;-79
2022/03/22 03:23:39;;;;;;;14.13;8.70;;;;;;;6.60;35.21;98189.06;6246113;22;20172;-83
2022/03/22 03:26:06;;;;;;;14.90;8.70;;;;;;;7.05;35.00;98257.16;6244591;22;20177;-92
2022/03/22 03:28:33;;;;;;;15.00;9.23;;;;;;;6.61;35.44;98211.38;6276184;22;20163;-77
2022/03/22 03:31:00;;;;;;;14.13;8.63;;;;;;;6.87;36.02;98229.94;6226007;22;20196;-80
2022/03/22 03:33:28;;;;;;;15.07;9.17;;;;;;;6.82;35.77;98249.72;6272286;22;20547;-83
2022/03/22 03:35:57;;;;;;;12.53;8.50;;;;;;;6.55;36.36;98203.75;6271900;22;20247;-80
2022/03/22 03:38:25;;;;;;;15.87;8.57;;;;;;;6.78;35.48;98237.75;6248199;22;20175;-83
2022/03/22 03:43:38;;;;;;;16.40;9.13;;;;;;;6.79;35.59;98233.47;6262677;22;20238;-79
2022/03/22 03:48:50;;;;;;;13.10;7.93;;;;;;;6.56;35.79;98229.44;6232571;22;20926;-81
2022/03/22 03:51:19;;;;;;;14.37;8.70;;;;;;;6.74;37.18;98258.44;6271904;22;20194;-87
2022/03/22 03:53:46;;;;;;;15.33;9.37;;;;;;;6.77;36.74;98264.38;6275358;22;20167;-77
2022/03/22 03:56:13;;;;;;;15.57;9.33;;;;;;;6.65;36.76;98248.22;6244256;22;20188;-81
2022/03/22 03:58:40;;;;;;;18.73;10.73;;;;;;;6.48;36.88;98220.97;6271606;22;20733;-77
2022/03/22 04:01:08;;;;;;;16.27;9.60;;;;;;;6.59;36.69;98236.28;6270430;22;20165;-84
2022/03/22 04:03:36;;;;;;;13.53;8.63;;;;;;;6.70;36.73;98249.03;6243531;22;20234;-80
2022/03/22 04:06:03;;;;;;;18.70;10.23;;;;;;;6.30;36.81;98182.56;6243290;22;20226;-86
2022/03/22 04:08:31;;;;;;;13.27;8.90;;;;;;;6.48;36.95;98236.41;6270909;22;20182;-84
2022/03/22 04:10:58;;;;;;;13.30;9.27;;;;;;;6.41;37.35;98203.88;6270512;22;20250;-77
2022/03/22 04:13:25;;;;;;;19.83;10.30;;;;;;;6.50;37.90;98224.38;6270852;22;20173;-85
2022/03/22 04:15:52;;;;;;;17.30;9.83;;;;;;;6.35;37.65;98203.94;6256951;22;20179;-80
2022/03/22 04:18:20;;;;;;;18.97;10.27;;;;;;;6.66;37.76;98244.78;6243074;22;20171;-79
2022/03/22 04:20:49;;;;;;;16.63;10.30;;;;;;;6.21;38.45;98174.06;6269405;22;20191;-86
2022/03/22 04:23:16;;;;;;;16.57;10.00;;;;;;;6.05;37.61;98157.97;6242029;22;20176;-87
2022/03/22 04:25:45;;;;;;;16.13;9.60;;;;;;;6.44;37.51;98203.84;6242260;22;20612;-82
2022/03/22 04:33:44;;;;;;;16.47;9.53;;;;;;;6.44;38.09;98197.84;6243233;22;20161;-84
2022/03/22 04:36:12;;;;;;;17.33;10.07;;;;;;;6.51;38.12;98202.91;6271683;22;20160;-80
2022/03/22 04:38:39;;;;;;;18.23;9.43;;;;;;;6.56;38.84;98205.41;6268892;22;20633;-83
2022/03/22 04:41:08;;;;;;;15.63;9.40;;;;;;;6.78;38.36;98240.34;6272172;22;20554;-78
2022/03/22 04:43:35;;;;;;;16.23;9.80;;;;;;;6.77;38.63;98245.50;6245184;22;20643;-82
2022/03/22 04:46:02;;;;;;;16.60;9.30;;;;;;;6.61;39.14;98182.22;6220375;22;20646;-82
2022/03/22 04:48:31;;;;;;;23.60;10.70;;;;;;;6.95;38.33;98202.38;6271789;22;20186;-80
2022/03/22 04:56:43;;;;;;;19.23;9.80;;;;;;;7.09;38.01;98186.75;6275834;22;20238;-85
2022/03/22 04:59:10;;;;;;;17.73;9.57;;;;;;;6.81;38.83;98115.88;6248256;22;20171;-89
2022/03/22 05:01:45;;;;;;;18.40;10.03;;;;;;;7.23;37.93;98192.56;6250953;22;20229;-84
2022/03/22 05:04:14;;;;;;;16.30;9.80;;;;;;;6.85;38.77;98118.41;6271418;22;20168;-81
2022/03/22 05:06:41;;;;;;;17.40;9.60;;;;;;;7.33;38.89;98174.38;6269777;22;20179;-79
2022/03/22 05:09:11;;;;;;;18.03;10.20;;;;;;;7.51;38.16;98190.41;6271423;22;20172;-82
2022/03/22 05:11:39;;;;;;;18.20;10.50;;;;;;;7.22;38.87;98139.31;6217802;22;20214;-81
2022/03/22 05:14:08;;;;;;;17.83;9.73;;;;;;;7.63;38.15;98179.91;6273129;22;20165;-83
2022/03/22 05:16:39;;;;;;;19.33;10.47;;;;;;;7.60;38.64;98180.81;6219495;22;20519;-78
2022/03/22 05:19:13;;;;;;;20.10;9.07;;;;;;;7.54;39.48;98173.19;6272746;22;20199;-79
2022/03/22 05:21:42;;;;;;;16.53;10.03;;;;;;;7.66;38.93;98190.19;6273686;22;20727;-83
2022/03/22 05:24:11;;;;;;;18.37;9.77;;;;;;;7.86;37.82;98208.75;6246184;22;20165;-83
2022/03/22 05:26:38;;;;;;;16.37;10.43;;;;;;;7.98;37.95;98206.81;6219239;22;20644;-80
2022/03/22 05:29:08;;;;;;;18.90;10.30;;;;;;;7.82;37.71;98201.94;6245928;22;20180;-79
2022/03/22 05:31:35;;;;;;;18.93;10.33;;;;;;;7.62;38.76;98165.34;6221208;22;20597;-87
2022/03/22 05:34:10;;;;;;;14.30;9.03;;;;;;;7.46;39.30;98138.09;6248617;22;20167;-86
2022/03/22 05:36:42;;;;;;;18.73;9.87;;;;;;;7.30;38.92;98134.91;6225728;22;20241;-82
2022/03/22 05:39:13;;;;;;;15.07;9.80;;;;;;;7.60;39.94;98183.41;6274012;22;20169;-90
2022/03/22 05:41:40;;;;;;;20.03;10.63;;;;;;;7.58;39.83;98185.16;6272053;22;20240;-85
2022/03/22 05:44:10;;;;;;;20.43;12.07;;;;;;;7.34;39.93;98123.66;6272302;22;20619;-80
2022/03/22 05:46:38;;;;;;;19.03;10.20;;;;;;;6.97;39.70;98110.50;6245004;22;20161;-81
2022/03/22 05:49:08;;;;;;;18.13;11.43;;;;;;;7.32;40.00;98187.25;6272802;22;20164;-83
2022/03/22 05:51:50;;;;;;;20.87;10.17;;;;;;;7.01;40.30;98143.06;6246265;22;20207;-81
2022/03/22 05:54:23;;;;;;;25.77;13.63;;;;;;;7.40;41.20;98195.72;6222579;22;20183;-78
2022/03/22 05:56:54;;;;;;;19.47;9.67;;;;;;;7.21;40.03;98133.31;6219109;22;20177;-85
2022/03/22 05:59:22;;;;;;;15.43;10.00;;;;;;;7.65;40.57;98186.75;6245017;22;20169;-77
2022/03/22 06:01:50;;;;;;;17.37;10.33;;;;;;;7.64;40.65;98190.22;6242158;22;20168;-78
2022/03/22 06:04:21;;;;;;;20.13;10.87;;;;;;;7.62;40.97;98181.66;6271881;22;20252;-78
2022/03/22 06:06:49;;;;;;;17.67;10.47;;;;;;;7.30;40.73;98152.94;6271349;22;20570;-79
2022/03/22 06:09:20;;;;;;;16.73;9.60;;;;;;;7.39;41.81;98191.47;6196302;22;20168;-79
2022/03/22 06:11:48;;;;;;;16.67;10.30;;;;;;;7.21;41.80;98168.53;6220307;22;20206;-86
2022/03/22 06:14:17;;;;;;;17.23;9.73;;;;;;;7.36;42.10;98187.19;6273260;22;20187;-84
2022/03/22 06:17:33;;;;;;;17.80;10.57;;;;;;;7.58;42.76;98216.09;6246250;22;20659;-82
2022/03/22 06:20:42;;;;;;;23.10;10.27;;;;;;;7.37;42.02;98155.41;6213040;22;20269;-79
2022/03/22 06:23:12;;;;;;;21.13;10.23;;;;;;;7.59;41.90;98204.88;6274815;22;20168;-84
2022/03/22 06:25:42;;;;;;;16.07;8.97;;;;;;;6.85;42.88;98114.97;6276542;22;20157;-83
2022/03/22 06:28:10;;;;;;;22.93;10.00;;;;;;;7.09;42.84;98163.56;6274619;22;20624;-83
2022/03/22 06:30:39;;;;;;;15.83;9.17;;;;;;;7.06;43.18;98189.34;6247801;22;20206;-87
2022/03/22 06:33:17;;;;;;;22.13;10.27;;;;;;;7.18;43.45;98209.78;6277412;22;20191;-82
2022/03/22 06:36:09;;;;;;;14.17;9.23;;;;;;;7.31;43.45;98211.34;6279446;22;20160;-86
2022/03/22 06:38:45;;;;;;;16.17;9.40;;;;;;;7.15;42.86;98199.53;6225827;22;20176;-83
2022/03/22 06:41:14;;;;;;;19.93;8.90;;;;;;;7.29;43.47;98231.94;6276460;22;20160;-84
2022/03/22 06:43:42;;;;;;;18.67;9.80;;;;;;;7.26;43.72;98200.22;6276752;22;20172;-82
2022/03/22 06:46:10;;;;;;;16.77;10.40;;;;;;;7.11;44.05;98161.81;6275633;22;20169;-83
2022/03/22 06:48:37;;;;;;;16.87;9.20;;;;;;;7.24;43.28;98191.66;6274250;22;20165;-80
2022/03/22 06:51:16;;;;;;;17.03;10.50;;;;;;;7.08;44.16;98167.88;6201868;22;20561;-89
2022/03/22 06:53:49;;;;;;;15.10;10.27;;;;;;;7.18;44.49;98192.63;6221841;22;20531;-83
2022/03/22 06:56:22;;;;;;;18.97;9.90;;;;;;;7.23;44.49;98183.09;6250741;22;20160;-91
2022/03/22 06:58:53;;;;;;;17.00;11.43;;;;;;;7.27;44.75;98183.91;6278052;22;20161;-90
2022/03/22 07:01:35;;;;;;;18.03;9.80;;;;;;;7.44;44.92;98219.75;6281589;22;20167;-80
2022/03/22 07:04:13;;;;;;;14.93;9.67;;;;;;;7.50;44.32;98210.16;6277851;22;20199;-89
2022/03/22 07:06:51;;;;;;;17.33;10.73;;;;;;;7.48;44.88;98219.66;6288481;22;20660;-89
2022/03/22 07:09:59;;;;;;;16.50;10.17;;;;;;;6.94;45.01;98102.84;6283907;22;20173;-90
2022/03/22 07:12:28;;;;;;;16.63;9.23;;;;;;;7.36;45.31;98189.78;6247796;22;20714;-92
2022/03/22 07:14:57;;;;;;;17.23;10.40;;;;;;;7.51;44.33;98221.34;6277056;22;20187;-91
2022/03/22 07:17:25;;;;;;;21.63;9.63;;;;;;;6.99;45.82;98149.94;6252362;22;20168;-80
2022/03/22 07:19:57;;;;;;;17.07;9.57;;;;;;;7.33;45.51;98184.69;6283079;22;20632;-77
2022/03/22 07:22:33;;;;;;;19.83;10.27;;;;;;;7.13;44.85;98145.44;6296500;22;20176;-86
2022/03/22 07:25:28;;;;;;;16.30;10.40;;;;;;;7.55;46.36;98231.59;6274167;22;20199;-82
2022/03/22 07:28:07;;;;;;;15.97;9.50;;;;;;;7.37;45.80;98181.19;6280910;22;20164;-83
2022/03/22 07:30:35;;;;;;;17.17;10.83;;;;;;;7.62;46.13;98220.31;6275902;22;20173;-88
2022/03/22 07:33:04;;;;;;;14.57;9.17;;;;;;;7.53;46.22;98199.81;6274788;22;20616;-86
2022/03/22 07:35:32;;;;;;;15.03;8.73;;;;;;;7.48;46.39;98188.72;6196966;22;20255;-82
2022/03/22 07:38:00;;;;;;;19.67;8.97;;;;;;;7.63;45.94;98203.09;6272537;22;20608;-84
2022/03/22 07:40:37;;;;;;;13.83;8.57;;;;;;;7.60;45.85;98167.09;6274155;22;20260;-81
2022/03/22 07:43:21;;;;;;;19.20;10.33;;;;;;;7.71;45.75;98191.81;6225157;22;20554;-85
2022/03/22 07:45:49;;;;;;;21.37;9.03;;;;;;;7.34;45.40;98105.63;6248803;22;20188;-83
2022/03/22 07:48:22;;;;;;;13.87;8.67;;;;;;;7.53;47.29;98179.22;6247309;22;20172;-78
2022/03/22 07:53:38;;;;;;;12.83;8.67;;;;;;;7.48;46.77;98149.25;6273714;22;20183;-81
2022/03/22 07:56:11;;;;;;;13.27;8.40;;;;;;;7.28;47.28;98116.03;6250668;22;20164;-82
2022/03/22 07:58:39;;;;;;;19.73;9.37;;;;;;;7.22;46.82;98092.94;6254566;22;20172;-84
2022/03/22 08:01:09;;;;;;;16.90;9.30;;;;;;;7.39;47.52;98130.47;6282178;22;20168;-80
2022/03/22 08:03:38;;;;;;;18.77;9.60;;;;;;;7.81;47.13;98202.84;6253660;22;20244;-78
2022/03/22 08:06:07;;;;;;;17.33;8.80;;;;;;;7.23;47.23;98164.22;6230256;22;20164;-83
2022/03/22 08:08:45;;;;;;;22.70;10.93;;;;;;;7.70;47.36;98190.13;6253435;22;20702;-83
2022/03/22 08:11:20;;;;;;;16.30;9.93;;;;;;;7.58;46.35;98155.94;6234519;22;20198;-82
2022/03/22 08:13:48;;;;;;;14.57;9.43;;;;;;;7.55;46.83;98136.22;6252889;22;20164;-84
2022/03/22 08:16:36;;;;;;;15.70;8.63;;;;;;;7.55;47.19;98123.34;6257249;22;20168;-78
2022/03/22 08:19:07;;;;;;;19.77;10.27;;;;;;;8.05;46.51;98162.00;6273180;22;20191;-82
2022/03/22 08:21:36;;;;;;;16.80;10.40;;;;;;;8.08;46.26;98136.13;6245485;22;20258;-87
2022/03/22 08:24:04;;;;;;;18.77;9.60;;;;;;;8.19;46.89;98123.91;6245471;22;20230;-79
2022/03/22 08:26:34;;;;;;;14.10;8.93;;;;;;;7.85;45.17;98146.00;6247322;22;20157;-88
2022/03/22 08:29:03;;;;;;;16.47;9.10;;;;;;;7.77;46.67;98176.22;6273546;22;20526;-85
2022/03/22 08:31:32;;;;;;;27.57;12.50;;;;;;;7.89;46.89;98155.38;6275133;22;20188;-82
2022/03/22 08:33:59;;;;;;;15.50;8.60;;;;;;;7.97;46.30;98153.56;6247913;22;20239;-83
2022/03/22 08:36:27;;;;;;;15.27;8.73;;;;;;;7.63;46.95;98069.91;6247143;22;20161;-89
2022/03/22 08:38:58;;;;;;;18.73;9.57;;;;;;;7.90;46.74;98094.34;6248292;22;20169;-84
2022/03/22 08:41:25;;;;;;;16.47;9.67;;;;;;;8.33;46.41;98125.38;6245704;22;20169;-84
2022/03/22 08:43:54;;;;;;;19.90;9.27;;;;;;;8.16;46.38;98102.47;6244741;22;20169;-81
2022/03/22 08:46:25;;;;;;;18.87;8.80;;;;;;;8.40;46.73;98080.50;6217578;22;20180;-80
2022/03/22 08:48:55;;;;;;;15.57;8.77;;;;;;;8.71;46.27;98045.41;6246567;22;20164;-88
2022/03/22 08:51:26;;;;;;;18.97;8.83;;;;;;;8.92;44.92;98044.94;6270851;22;20262;-84
2022/03/22 08:53:56;;;;;;;19.47;9.80;;;;;;;9.54;44.49;98111.47;6244321;22;20171;-79
2022/03/22 08:56:25;;;;;;;16.77;8.50;;;;;;;9.46;44.12;98121.16;6244988;22;20164;-82
2022/03/22 08:58:54;;;;;;;16.10;9.37;;;;;;;9.11;44.49;98072.03;6246613;22;20179;-84
2022/03/22 09:01:24;;;;;;;17.50;8.97;;;;;;;9.58;44.71;98100.16;6277460;22;20167;-80
2022/03/22 09:06:39;;;;;;;15.93;9.70;;;;;;;9.61;44.52;98063.88;6252642;22;20157;-79
2022/03/22 09:09:10;;;;;;;15.33;8.73;;;;;;;9.34;44.32;98072.31;6274383;22;20164;-87
2022/03/22 09:11:38;;;;;;;16.67;9.03;;;;;;;8.93;45.03;98060.38;6273180;22;20279;-84
2022/03/22 09:14:07;;;;;;;15.37;8.13;;;;;;;8.99;44.31;98056.81;6215414;22;20181;-80
2022/03/22 09:16:35;;;;;;;14.97;9.10;;;;;;;9.54;44.57;98077.84;6219306;22;20188;-83
2022/03/22 09:19:05;;;;;;;17.13;9.43;;;;;;;9.71;44.06;98061.91;6244143;22;20165;-86
2022/03/22 09:22:05;;;;;;;18.40;9.57;;;;;;;9.61;44.14;98057.84;6231471;22;20253;-82
2022/03/22 09:24:36;;;;;;;15.63;9.10;;;;;;;9.30;45.65;98104.31;6242189;22;20176;-79
2022/03/22 09:27:17;;;;;;;19.07;10.17;;;;;;;9.11;44.96;98072.03;6246449;22;20251;-83
2022/03/22 09:29:58;;;;;;;18.07;9.00;;;;;;;8.91;45.87;98033.75;6225835;22;20539;-86
2022/03/22 09:32:26;;;;;;;14.67;8.57;;;;;;;8.75;46.34;98080.63;6244557;22;20724;-87
2022/03/22 09:34:54;;;;;;;15.53;8.57;;;;;;;8.79;45.71;98038.34;6272537;22;20358;-79
2022/03/22 09:37:22;;;;;;;16.33;8.23;;;;;;;8.66;45.97;98005.94;6244334;22;20191;-83
2022/03/22 09:39:51;;;;;;;18.40;9.37;;;;;;;8.72;46.61;98035.03;6244842;22;20179;-81
2022/03/22 09:42:18;;;;;;;19.53;7.77;;;;;;;8.41;46.75;98004.81;6244448;22;20505;-78
2022/03/22 09:44:51;;;;;;;12.00;7.60;;;;;;;8.83;46.79;98071.81;6277084;22;20194;-82
2022/03/22 09:47:18;;;;;;;13.47;7.57;;;;;;;8.67;46.49;98061.88;6275087;22;20486;-79
2022/03/22 09:49:45;;;;;;;13.20;7.70;;;;;;;8.42;47.30;98011.63;6250061;22;20157;-82
2022/03/22 09:52:14;;;;;;;12.27;8.50;;;;;;;8.36;47.86;98014.34;6278662;22;20219;-85
2022/03/22 09:54:42;;;;;;;15.70;9.00;;;;;;;8.58;47.79;98034.50;6222974;22;20620;-82
2022/03/22 09:57:09;;;;;;;16.80;9.53;;;;;;;8.56;46.55;98035.41;6249492;22;20214;-85
2022/03/22 09:59:39;;;;;;;15.50;8.80;;;;;;;8.37;47.15;98001.41;6277097;22;20197;-85
2022/03/22 10:02:12;;;;;;;17.40;9.20;;;;;;;8.77;46.90;98055.59;6224720;22;20526;-84
2022/03/22 10:04:43;;;;;;;14.07;7.37;;;;;;;8.29;47.44;98007.63;6276166;22;20181;-78
2022/03/22 10:07:21;;;;;;;17.67;8.67;;;;;;;8.85;47.77;98071.78;6279951;22;20160;-79
2022/03/22 10:09:59;;;;;;;15.93;7.67;;;;;;;8.19;48.25;97966.50;6254141;22;20164;-86
2022/03/22 10:12:30;;;;;;;17.80;9.60;;;;;;;8.90;47.98;98081.09;6224660;22;20199;-82
2022/03/22 10:15:12;;;;;;;12.23;8.23;;;;;;;8.89;48.70;98084.59;6272644;22;20172;-84
2022/03/22 10:17:41;;;;;;;11.83;7.90;;;;;;;9.06;48.55;98071.28;6245135;22;20176;-87
2022/03/22 10:20:24;;;;;;;13.53;7.67;;;;;;;9.00;48.25;98087.75;6274379;22;20188;-86
2022/03/22 10:22:58;;;;;;;10.77;7.37;;;;;;;8.80;48.87;98071.88;6273653;22;20172;-78
2022/03/22 10:25:31;;;;;;;14.17;8.30;;;;;;;9.00;48.69;98069.69;6274603;22;20164;-78
2022/03/22 10:28:04;;;;;;;12.83;8.30;;;;;;;8.93;49.30;98039.72;6274642;22;20161;-79
2022/03/22 10:30:32;;;;;;;16.67;7.73;;;;;;;8.94;49.86;98027.66;6273438;22;20263;-83
2022/03/22 10:33:00;;;;;;;18.60;8.73;;;;;;;9.19;49.65;98052.00;6220327;22;20200;-88
2022/03/22 10:35:33;;;;;;;15.07;8.20;;;;;;;9.33;48.96;98068.06;6271592;22;20171;-86
2022/03/22 10:38:04;;;;;;;14.80;8.97;;;;;;;9.61;48.09;98032.84;6245104;22;20260;-79
2022/03/22 10:40:35;;;;;;;17.50;9.50;;;;;;;10.18;46.99;98030.44;6273283;22;20239;-78
2022/03/22 10:43:11;;;;;;;16.63;8.53;;;;;;;9.80;47.40;98000.44;6220986;22;20234;-84
2022/03/22 10:45:53;;;;;;;13.93;7.43;;;;;;;10.13;47.58;98027.16;6272528;22;20165;-80
2022/03/22 10:48:27;;;;;;;14.77;8.47;;;;;;;10.09;47.38;97991.00;6219553;22;20177;-81
2022/03/22 10:50:58;;;;;;;14.67;9.27;;;;;;;10.14;47.62;98002.13;6272542;22;20173;-84
2022/03/22 10:53:28;;;;;;;17.00;9.83;;;;;;;10.05;46.95;97958.34;6217366;22;20255;-78
2022/03/22 10:55:59;;;;;;;14.90;9.10;;;;;;;10.37;47.03;98015.22;6244295;22;20174;-78
2022/03/22 10:58:29;;;;;;;13.47;8.27;;;;;;;10.19;47.70;97989.88;6271703;22;20556;-82
2022/03/22 11:00:59;;;;;;;13.90;8.00;;;;;;;10.24;47.84;97993.19;6244892;22;20161;-80
2022/03/22 11:03:30;;;;;;;17.23;8.13;;;;;;;10.04;47.77;97925.59;6243600;22;20520;-81
2022/03/22 11:06:02;;;;;;;21.80;10.40;;;;;;;10.39;47.72;97961.66;6272073;22;20185;-87
2022/03/22 11:08:35;;;;;;;14.70;7.90;;;;;;;10.76;46.76;97992.47;6197533;22;20174;-87
2022/03/22 11:11:05;;;;;;;14.20;8.37;;;;;;;10.62;47.31;97948.84;6244684;22;20307;-89
2022/03/22 11:13:36;;;;;;;12.90;8.30;;;;;;;10.84;47.38;97972.34;6275977;22;20193;-84
2022/03/22 11:16:07;;;;;;;15.63;8.93;;;;;;;10.70;47.14;97970.19;6214373;22;20250;-83
2022/03/22 11:18:37;;;;;;;15.90;8.87;;;;;;;10.32;46.55;97870.41;6233306;22;20605;-85
2022/03/22 11:21:05;;;;;;;15.97;9.60;;;;;;;10.96;46.69;97939.13;6229889;22;20256;-80
2022/03/22 11:23:35;;;;;;;14.73;8.00;;;;;;;10.59;46.48;97938.59;6278590;22;20165;-87
2022/03/22 11:26:16;;;;;;;17.13;8.20;;;;;;;10.65;46.66;97921.09;6279347;22;20166;-84
2022/03/22 11:28:46;;;;;;;15.97;9.20;;;;;;;10.58;46.45;97904.09;6278401;22;20164;-88
2022/03/22 11:31:21;;;;;;;16.73;8.50;;;;;;;10.75;46.05;97892.31;6273587;22;20212;-83
2022/03/22 11:36:43;;;;;;;13.43;7.30;;;;;;;11.11;45.25;97863.41;6273675;22;20235;-85
2022/03/22 11:42:30;;;;;;;13.40;7.57;;;;;;;11.27;45.01;97923.38;6122587;23;20183;-90
2022/03/22 11:45:03;;;;;;;14.17;6.70;;;;;;;11.04;45.45;97887.88;6093674;23;21120;-87
2022/03/22 11:47:39;;;;;;;14.87;8.60;;;;;;;11.04;45.64;97874.91;6122699;23;20556;-89
2022/03/22 11:50:10;;;;;;;14.83;7.70;;;;;;;11.32;45.21;97890.34;6128878;23;20174;-85
2022/03/22 11:52:49;;;;;;;14.70;8.43;;;;;;;11.25;45.68;97865.56;6126787;23;20198;-86
2022/03/22 11:55:30;;;;;;;13.17;7.97;;;;;;;11.20;44.84;97831.16;6105715;23;20170;-85
2022/03/22 11:58:11;;;;;;;8.90;6.90;;;;;;;11.76;44.42;97858.50;6126605;23;20184;-85
2022/03/22 12:00:55;;;;;;;14.83;7.10;;;;;;;12.02;43.78;97834.13;6107066;23;20172;-86
2022/03/22 12:03:33;;;;;;;11.60;5.73;;;;;;;11.85;42.91;97776.88;6126874;23;20176;-88
2022/03/22 12:06:13;;;;;;;11.30;6.40;;;;;;;12.49;41.60;97843.50;6124967;23;20506;-87
2022/03/22 12:08:43;;;;;;;9.97;4.80;;;;;;;12.39;40.82;97826.59;6129238;23;20246;-88
2022/03/22 12:11:16;;;;;;;9.67;4.73;;;;;;;12.72;39.86;97848.59;6102520;23;20205;-90
2022/03/22 12:13:50;;;;;;;17.87;6.47;;;;;;;12.75;38.45;97793.91;6136435;23;20203;-90
2022/03/22 12:16:25;;;;;;;19.40;5.13;;;;;;;12.76;37.11;97847.56;6134750;23;20172;-95
2022/03/22 12:18:53;;;;;;;10.73;4.50;;;;;;;12.71;37.21;97800.16;6139746;23;20173;-93
2022/03/22 12:21:24;;;;;;;11.17;4.57;;;;;;;12.80;36.83;97798.88;6131491;23;20178;-89